createdAt,value
2022-09-12T00:01:31.493Z,71.41
2022-09-12T00:04:02.039Z,71.55
2022-09-12T00:06:32.097Z,71.50
2022-09-12T00:09:03.830Z,71.24
2022-09-12T00:11:33.516Z,71.32
2022-09-12T00:14:03.029Z,71.20
2022-09-12T00:16:33.548Z,71.19
2022-09-12T00:19:02.392Z,71.19
2022-09-12T00:21:30.697Z,71.02
2022-09-12T00:23:59.109Z,70.77
2022-09-12T00:26:27.625Z,71.10
2022-09-12T00:28:57.412Z,71.05
2022-09-12T00:31:27.873Z,70.94
2022-09-12T00:33:58.362Z,71.21
2022-09-12T00:36:28.101Z,71.08
2022-09-12T00:38:56.529Z,70.96
2022-09-12T00:41:27.025Z,71.40
2022-09-12T00:43:59.818Z,71.11
2022-09-12T00:46:35.673Z,70.91
2022-09-12T00:49:07.969Z,71.04
2022-09-12T00:51:38.763Z,70.85
2022-09-12T00:54:10.954Z,70.98
2022-09-12T00:56:42.985Z,71.09
2022-09-12T00:59:18.077Z,70.89
2022-09-12T01:01:49.684Z,70.69
2022-09-12T01:04:19.417Z,70.59
2022-09-12T01:06:49.024Z,70.50
2022-09-12T01:09:20.423Z,70.23
2022-09-12T01:11:50.025Z,70.22
2022-09-12T01:14:20.704Z,70.39
2022-09-12T01:16:51.174Z,70.32
2022-09-12T01:19:47.274Z,69.91
2022-09-12T01:22:29.862Z,69.94
2022-09-12T01:25:07.799Z,69.68
2022-09-12T01:27:49.141Z,69.44
2022-09-12T01:30:46.428Z,69.29
2022-09-12T01:33:37.224Z,69.26
2022-09-12T01:36:35.178Z,69.18
2022-09-12T01:39:06.290Z,69.00
2022-09-12T01:41:46.985Z,69.00
2022-09-12T01:44:24.361Z,68.69
2022-09-12T01:46:58.439Z,68.40
2022-09-12T01:49:30.781Z,68.18
2022-09-12T01:52:04.646Z,68.08
2022-09-12T01:54:40.464Z,67.92
2022-09-12T01:57:14.617Z,67.54
2022-09-12T01:59:48.416Z,67.41
2022-09-12T02:02:24.212Z,67.37
2022-09-12T02:04:59.569Z,67.30
2022-09-12T02:07:35.917Z,67.20
2022-09-12T02:10:12.263Z,67.06
2022-09-12T02:12:45.741Z,66.83
2022-09-12T02:15:16.537Z,66.69
2022-09-12T02:17:50.713Z,66.49
2022-09-12T02:20:46.341Z,66.66
2022-09-12T02:23:13.932Z,66.41
2022-09-12T02:25:45.831Z,66.30
2022-09-12T02:28:18.256Z,65.87
2022-09-12T02:30:54.188Z,66.21
2022-09-12T02:33:27.780Z,65.95
2022-09-12T02:35:59.877Z,66.08
2022-09-12T02:38:33.625Z,66.16
2022-09-12T02:41:02.203Z,66.10
2022-09-12T02:43:30.402Z,66.06
2022-09-12T02:45:58.866Z,66.19
2022-09-12T02:48:32.890Z,66.27
2022-09-12T02:51:01.847Z,66.30
2022-09-12T02:53:30.306Z,66.35
2022-09-12T02:55:58.984Z,66.40
2022-09-12T02:58:31.601Z,66.15
2022-09-12T03:01:07.491Z,66.30
2022-09-12T03:04:01.526Z,66.30
2022-09-12T03:06:37.385Z,66.11
2022-09-12T03:09:14.131Z,66.08
2022-09-12T03:12:02.581Z,65.79
2022-09-12T03:14:53.266Z,65.88
2022-09-12T03:17:32.423Z,65.88
2022-09-12T03:20:09.437Z,65.50
2022-09-12T03:22:51.210Z,65.25
2022-09-12T03:25:23.465Z,65.31
2022-09-12T03:27:59.822Z,64.87
2022-09-12T03:30:28.895Z,64.95
2022-09-12T03:32:57.131Z,64.85
2022-09-12T03:35:27.040Z,64.43
2022-09-12T03:37:55.352Z,64.66
2022-09-12T03:40:23.588Z,64.49
2022-09-12T03:42:51.846Z,64.59
2022-09-12T03:45:20.149Z,64.09
2022-09-12T03:47:48.401Z,64.35
2022-09-12T03:50:17.231Z,64.17
2022-09-12T03:52:47.711Z,63.92
2022-09-12T03:55:16.572Z,63.83
2022-09-12T03:57:44.845Z,63.68
2022-09-12T04:00:19.079Z,63.63
2022-09-12T04:02:48.367Z,63.52
2022-09-12T04:05:16.644Z,63.13
2022-09-12T04:07:44.906Z,63.23
2022-09-12T04:10:16.167Z,63.55
2022-09-12T04:12:44.866Z,63.64
2022-09-12T04:15:13.104Z,63.23
2022-09-12T04:17:41.439Z,63.63
2022-09-12T04:20:10.207Z,62.99
2022-09-12T04:22:38.739Z,62.97
2022-09-12T04:25:08.121Z,63.09
2022-09-12T04:27:38.029Z,62.80
2022-09-12T04:30:07.604Z,63.07
2022-09-12T04:32:35.924Z,62.68
2022-09-12T04:35:04.479Z,62.98
2022-09-12T04:37:32.860Z,62.89
2022-09-12T04:40:01.661Z,62.90
2022-09-12T04:42:31.188Z,63.00
2022-09-12T04:45:00.928Z,62.78
2022-09-12T04:47:29.996Z,62.97
2022-09-12T04:49:58.221Z,62.62
2022-09-12T04:52:26.639Z,62.39
2022-09-12T04:54:54.903Z,62.39
2022-09-12T04:57:23.243Z,62.36
2022-09-12T04:59:51.483Z,62.27
2022-09-12T05:02:21.502Z,62.00
2022-09-12T05:04:49.911Z,62.08
2022-09-12T05:07:19.062Z,61.89
2022-09-12T05:09:47.287Z,61.95
2022-09-12T05:12:15.475Z,62.25
2022-09-12T05:14:43.682Z,62.21
2022-09-12T05:17:11.844Z,62.07
2022-09-12T05:19:41.504Z,62.04
2022-09-12T05:22:09.854Z,62.22
2022-09-12T05:24:39.476Z,62.12
2022-09-12T05:27:07.749Z,62.04
2022-09-12T05:29:36.078Z,62.51
2022-09-12T05:32:04.401Z,62.26
2022-09-12T05:34:32.656Z,62.33
2022-09-12T05:37:02.299Z,62.68
2022-09-12T05:39:30.538Z,62.68
2022-09-12T05:41:58.742Z,62.71
2022-09-12T05:44:26.979Z,62.61
2022-09-12T05:46:55.196Z,62.38
2022-09-12T05:49:23.483Z,62.39
2022-09-12T05:51:52.056Z,62.32
2022-09-12T05:54:22.905Z,62.32
2022-09-12T05:56:51.168Z,62.00
2022-09-12T05:59:21.370Z,61.91
2022-09-12T06:01:49.833Z,62.50
2022-09-12T06:04:18.283Z,62.21
2022-09-12T06:06:48.850Z,61.93
2022-09-12T06:09:18.481Z,61.92
2022-09-12T06:11:48.150Z,61.78
2022-09-12T06:14:19.670Z,61.36
2022-09-12T06:16:48.768Z,61.46
2022-09-12T06:19:19.277Z,61.36
2022-09-12T06:21:49.617Z,60.90
2022-09-12T06:24:18.240Z,61.04
2022-09-12T06:26:48.666Z,61.04
2022-09-12T06:29:17.358Z,60.77
2022-09-12T06:31:48.451Z,61.10
2022-09-12T06:34:17.581Z,61.02
2022-09-12T06:36:47.233Z,60.83
2022-09-12T06:39:17.467Z,60.48
2022-09-12T06:41:48.440Z,59.73
2022-09-12T06:44:19.450Z,59.31
2022-09-12T06:46:47.979Z,57.81
2022-09-12T06:49:17.655Z,56.86
2022-09-12T06:51:46.204Z,56.47
2022-09-12T06:54:16.955Z,56.39
2022-09-12T06:56:45.976Z,56.81
2022-09-12T06:59:15.886Z,56.52
2022-09-12T07:01:44.517Z,56.83
2022-09-12T07:04:12.813Z,56.96
2022-09-12T07:06:42.975Z,57.21
2022-09-12T07:09:13.348Z,57.33
2022-09-12T07:11:43.161Z,57.73
2022-09-12T07:14:14.031Z,57.84
2022-09-12T07:16:45.274Z,57.70
2022-09-12T07:19:13.750Z,58.20
2022-09-12T07:21:42.221Z,58.03
2022-09-12T07:24:11.301Z,58.09
2022-09-12T07:26:42.224Z,57.68
2022-09-12T07:29:35.944Z,57.42
2022-09-12T07:32:06.196Z,57.42
2022-09-12T07:34:35.423Z,58.07
2022-09-12T07:37:03.585Z,57.95
2022-09-12T07:39:32.478Z,58.55
2022-09-12T07:42:01.061Z,59.17
2022-09-12T07:44:29.486Z,58.24
2022-09-12T07:46:57.937Z,58.32
2022-09-12T07:49:27.616Z,58.90
2022-09-12T07:51:56.094Z,59.39
2022-09-12T07:54:24.670Z,60.00
2022-09-12T07:56:52.907Z,60.69
2022-09-12T07:59:48.476Z,60.69
2022-09-12T08:02:17.045Z,60.00
2022-09-12T08:04:49.222Z,59.39
2022-09-12T08:07:18.459Z,59.43
2022-09-12T08:09:47.440Z,58.48
2022-09-12T08:12:16.351Z,58.64
2022-09-12T08:14:44.630Z,57.95
2022-09-12T08:17:12.900Z,58.79
2022-09-12T08:19:41.078Z,58.81
2022-09-12T08:22:10.684Z,58.95
2022-09-12T08:24:40.542Z,58.56
2022-09-12T08:27:09.305Z,58.73
2022-09-12T08:29:38.074Z,58.48
2022-09-12T08:32:06.535Z,58.53
2022-09-12T08:34:34.595Z,59.46
2022-09-12T08:37:03.214Z,60.00
2022-09-12T08:39:33.911Z,59.55
2022-09-12T08:42:04.246Z,60.01
2022-09-12T08:45:03.791Z,60.36
2022-09-12T08:47:35.832Z,60.48
2022-09-12T08:50:13.350Z,60.66
2022-09-12T08:52:48.487Z,59.49
2022-09-12T08:55:35.625Z,58.83
2022-09-12T08:58:14.074Z,58.13
2022-09-12T09:00:50.716Z,57.65
2022-09-12T09:03:49.097Z,57.50
2022-09-12T09:06:44.232Z,56.18
2022-09-12T09:09:21.001Z,56.21
2022-09-12T09:12:01.005Z,55.69
2022-09-12T09:15:12.281Z,55.54
2022-09-12T09:17:44.026Z,55.03
2022-09-12T09:20:30.882Z,55.01
2022-09-12T09:23:06.435Z,54.68
2022-09-12T09:25:44.129Z,54.75
2022-09-12T09:28:19.255Z,53.25
2022-09-12T09:30:48.596Z,53.98
2022-09-12T09:33:22.701Z,52.92
2022-09-12T09:36:00.471Z,52.11
2022-09-12T09:38:43.077Z,51.90
2022-09-12T09:41:28.214Z,51.34
2022-09-12T09:43:58.558Z,51.91
2022-09-12T09:46:28.545Z,52.04
2022-09-12T09:49:04.230Z,52.20
2022-09-12T09:51:37.496Z,51.74
2022-09-12T09:54:17.327Z,50.43
2022-09-12T09:56:46.636Z,50.02
2022-09-12T09:59:18.801Z,50.14
2022-09-12T10:01:51.232Z,50.57
2022-09-12T10:04:21.737Z,50.32
2022-09-12T10:06:53.160Z,48.94
2022-09-12T10:09:25.071Z,48.74
2022-09-12T10:11:55.590Z,48.33
2022-09-12T10:14:35.172Z,47.75
2022-09-12T10:17:05.541Z,45.85
2022-09-12T10:19:38.963Z,45.18
2022-09-12T10:22:13.949Z,45.36
2022-09-12T10:24:43.724Z,45.44
2022-09-12T10:27:18.940Z,46.32
2022-09-12T10:29:52.232Z,43.11
2022-09-12T10:32:30.510Z,43.36
2022-09-12T10:35:01.815Z,42.54
2022-09-12T10:37:33.725Z,41.67
2022-09-12T10:40:04.040Z,41.74
2022-09-12T10:42:48.485Z,40.59
2022-09-12T10:45:27.392Z,39.39
2022-09-12T10:47:58.506Z,39.71
2022-09-12T10:50:30.085Z,40.19
2022-09-12T10:53:14.097Z,39.81
2022-09-12T10:55:51.945Z,40.41
2022-09-12T10:58:36.779Z,40.42
2022-09-12T11:01:18.197Z,40.40
2022-09-12T11:04:05.805Z,39.88
2022-09-12T11:06:41.910Z,40.10
2022-09-12T11:09:20.485Z,40.24
2022-09-12T11:12:02.468Z,39.14
2022-09-12T11:14:51.618Z,40.54
2022-09-12T11:17:33.839Z,40.72
2022-09-12T11:20:30.371Z,40.18
2022-09-12T11:23:17.056Z,41.04
2022-09-12T11:25:51.314Z,41.20
2022-09-12T11:28:31.986Z,41.96
2022-09-12T11:31:20.538Z,41.99
2022-09-12T11:33:56.472Z,41.93
2022-09-12T11:36:34.359Z,42.03
2022-09-12T11:39:13.363Z,42.47
2022-09-12T11:41:44.441Z,42.16
2022-09-12T11:44:20.524Z,42.46
2022-09-12T11:46:52.113Z,42.72
2022-09-12T11:49:28.561Z,43.15
2022-09-12T11:52:02.333Z,43.75
2022-09-12T11:54:37.359Z,44.44
2022-09-12T11:57:14.916Z,43.76
2022-09-12T11:59:50.722Z,43.24
2022-09-12T12:02:26.668Z,43.27
2022-09-12T12:05:18.980Z,41.84
2022-09-12T12:07:53.870Z,42.08
2022-09-12T12:10:28.779Z,42.38
2022-09-12T12:12:59.345Z,42.38
2022-09-12T12:15:29.197Z,42.54
2022-09-12T12:18:10.779Z,42.29
2022-09-12T12:20:42.364Z,42.45
2022-09-12T12:23:23.191Z,42.10
2022-09-12T12:25:56.183Z,41.52
2022-09-12T12:29:01.773Z,41.40
2022-09-12T12:31:29.996Z,41.68
2022-09-12T12:34:22.022Z,41.32
2022-09-12T12:36:51.785Z,41.29
2022-09-12T12:40:01.090Z,41.87
2022-09-12T12:43:05.048Z,41.50
2022-09-12T12:46:03.627Z,42.03
2022-09-12T12:48:47.749Z,41.50
2022-09-12T12:51:36.661Z,41.65
2022-09-12T12:54:28.150Z,41.90
2022-09-12T12:57:06.329Z,41.61
2022-09-12T12:59:35.406Z,41.72
2022-09-12T13:02:05.663Z,40.35
2022-09-12T13:04:35.151Z,40.77
2022-09-12T13:07:08.447Z,41.08
2022-09-12T13:09:46.999Z,42.03
2022-09-12T13:12:22.789Z,42.35
2022-09-12T13:14:54.783Z,42.48
2022-09-12T13:17:39.596Z,42.53
2022-09-12T13:20:28.330Z,41.86
2022-09-12T13:22:58.093Z,42.48
2022-09-12T13:25:31.209Z,42.19
2022-09-12T13:28:06.613Z,42.46
2022-09-12T13:30:36.937Z,42.87
2022-09-12T13:33:22.373Z,42.61
2022-09-12T13:36:16.840Z,43.33
2022-09-12T13:38:58.656Z,43.54
2022-09-12T13:41:46.955Z,44.50
2022-09-12T13:44:19.410Z,45.84
2022-09-12T13:46:48.781Z,46.70
2022-09-12T13:49:23.371Z,47.39
2022-09-12T13:52:01.154Z,48.09
2022-09-12T13:54:30.633Z,48.41
2022-09-12T13:57:00.711Z,48.90
2022-09-12T13:59:29.153Z,49.41
2022-09-12T14:01:57.420Z,49.73
2022-09-12T14:04:46.943Z,49.32
2022-09-12T14:07:20.395Z,49.75
2022-09-12T14:09:56.322Z,49.37
2022-09-12T14:12:30.341Z,49.56
2022-09-12T14:14:59.077Z,48.76
2022-09-12T14:17:33.735Z,48.96
2022-09-12T14:20:04.167Z,48.83
2022-09-12T14:22:34.265Z,48.80
2022-09-12T14:25:03.512Z,48.67
2022-09-12T14:27:43.249Z,51.76
2022-09-12T14:30:23.286Z,52.94
2022-09-12T14:33:19.699Z,53.54
2022-09-12T14:35:49.776Z,54.37
2022-09-12T14:38:30.116Z,53.35
2022-09-12T14:41:02.338Z,52.17
2022-09-12T14:43:33.663Z,51.49
2022-09-12T14:46:05.721Z,51.37
2022-09-12T14:48:37.639Z,51.74
2022-09-12T14:51:06.613Z,51.35
2022-09-12T14:53:36.959Z,51.13
2022-09-12T14:56:13.242Z,50.36
2022-09-12T14:58:44.354Z,50.61
2022-09-12T15:01:27.769Z,49.97
2022-09-12T15:03:58.115Z,50.41
2022-09-12T15:06:29.717Z,49.47
2022-09-12T15:09:00.782Z,49.22
2022-09-12T15:11:29.383Z,49.06
2022-09-12T15:13:59.088Z,47.44
2022-09-12T15:16:30.417Z,47.30
2022-09-12T15:19:01.481Z,46.92
2022-09-12T15:21:32.935Z,46.76
2022-09-12T15:24:01.311Z,47.40
2022-09-12T15:26:33.380Z,47.52
2022-09-12T15:29:03.551Z,47.62
2022-09-12T15:31:35.479Z,47.20
2022-09-12T15:34:09.385Z,47.91
2022-09-12T15:36:55.607Z,47.92
2022-09-12T15:40:21.782Z,48.31
2022-09-12T15:43:55.465Z,48.80
2022-09-12T15:48:06.991Z,48.30
2022-09-12T15:50:48.638Z,49.55
2022-09-12T15:53:40.218Z,49.40
2022-09-12T15:56:13.941Z,49.50
2022-09-12T15:59:24.252Z,49.36
2022-09-12T16:02:33.485Z,49.46
2022-09-12T16:05:38.197Z,49.45
2022-09-12T16:08:16.916Z,49.98
2022-09-12T16:12:36.491Z,50.51
2022-09-12T16:13:47.252Z,50.05
2022-09-12T16:16:55.999Z,49.48
2022-09-12T16:19:28.480Z,49.67
2022-09-12T16:22:08.640Z,49.11
2022-09-12T16:24:40.921Z,48.44
2022-09-12T16:27:16.519Z,48.78
2022-09-12T16:30:25.021Z,49.07
2022-09-12T16:33:33.932Z,49.89
2022-09-12T16:50:46.625Z,52.18
2022-09-12T18:49:56.576Z,59.44
2022-09-12T18:52:28.716Z,59.02
2022-09-12T18:54:57.262Z,58.92
2022-09-12T18:57:26.199Z,58.56
2022-09-12T18:59:54.969Z,58.55
2022-09-12T19:02:24.727Z,58.17
2022-09-12T19:04:54.399Z,58.42
2022-09-12T19:07:22.604Z,58.23
2022-09-12T19:09:51.003Z,58.68
2022-09-12T19:12:19.434Z,58.71
2022-09-12T19:14:47.662Z,58.46
2022-09-12T19:17:17.548Z,58.16
2022-09-12T19:19:46.021Z,58.18
2022-09-12T19:22:16.076Z,57.97
2022-09-12T19:24:44.190Z,57.73
2022-09-12T19:27:13.720Z,57.85
2022-09-12T19:29:42.057Z,57.88
2022-09-12T19:32:10.325Z,57.54
2022-09-12T19:34:38.540Z,57.63
2022-09-12T19:37:06.826Z,57.91
2022-09-12T19:39:36.495Z,57.80
2022-09-12T19:42:04.931Z,58.09
2022-09-12T19:44:33.115Z,57.67
2022-09-12T19:47:01.433Z,58.12
2022-09-12T19:49:29.724Z,57.88
2022-09-12T19:51:58.025Z,58.26
2022-09-12T19:54:26.309Z,58.21
2022-09-12T19:56:55.953Z,58.15
2022-09-12T19:59:24.250Z,58.05
2022-09-12T20:01:54.766Z,58.73
2022-09-12T20:04:25.555Z,58.36
2022-09-12T20:06:54.220Z,58.80
2022-09-12T20:09:22.413Z,58.49
2022-09-12T20:11:50.898Z,58.88
2022-09-12T20:14:21.362Z,59.26
2022-09-12T20:16:49.869Z,59.22
2022-09-12T20:19:18.028Z,59.68
2022-09-12T20:21:46.729Z,59.98
2022-09-12T20:24:15.933Z,60.18
2022-09-12T20:26:45.297Z,60.13
2022-09-12T20:29:14.237Z,60.77
2022-09-12T20:31:44.799Z,61.08
2022-09-12T20:34:16.815Z,61.22
2022-09-12T20:36:45.381Z,60.89
2022-09-12T20:39:15.764Z,61.27
2022-09-12T20:41:44.473Z,61.13
2022-09-12T20:44:12.703Z,61.30
2022-09-12T20:46:41.570Z,60.61
2022-09-12T20:49:11.276Z,61.02
2022-09-12T20:51:40.220Z,61.28
2022-09-12T20:54:10.068Z,61.41
2022-09-12T20:56:39.091Z,61.33
2022-09-12T20:59:07.690Z,61.53
2022-09-12T21:01:36.137Z,61.62
2022-09-12T21:04:06.290Z,61.47
2022-09-12T21:06:36.079Z,61.88
2022-09-12T21:09:04.417Z,62.24
2022-09-12T21:11:32.796Z,62.55
2022-09-12T21:14:01.017Z,62.74
2022-09-12T21:16:29.392Z,62.63
2022-09-12T21:18:59.517Z,62.78
2022-09-12T21:21:28.170Z,62.50
2022-09-12T21:24:00.943Z,62.78
2022-09-12T21:26:29.346Z,62.66
2022-09-12T21:28:58.207Z,62.79
2022-09-12T21:31:26.945Z,62.72
2022-09-12T21:33:55.412Z,63.29
2022-09-12T21:36:23.634Z,63.21
2022-09-12T21:38:51.979Z,63.45
2022-09-12T21:41:22.050Z,63.96
2022-09-12T21:43:50.331Z,63.62
2022-09-12T21:46:18.677Z,63.43
2022-09-12T21:48:47.275Z,63.98
2022-09-12T21:51:15.534Z,63.90
2022-09-12T21:53:44.291Z,64.16
2022-09-12T21:56:12.589Z,64.24
2022-09-12T21:58:42.345Z,64.37
2022-09-12T22:01:13.081Z,64.52
2022-09-12T22:03:43.169Z,64.66
2022-09-12T22:06:11.603Z,65.37
2022-09-12T22:08:41.007Z,65.18
2022-09-12T22:11:11.045Z,65.15
2022-09-12T22:13:44.044Z,65.58
2022-09-12T22:16:12.892Z,65.64
2022-09-12T22:18:41.309Z,65.64
2022-09-12T22:21:13.261Z,65.76
2022-09-12T22:23:59.555Z,65.81
2022-09-12T22:26:28.350Z,66.01
2022-09-12T22:28:58.081Z,66.07
2022-09-12T22:31:27.090Z,66.22
2022-09-12T22:33:57.172Z,65.78
2022-09-12T22:36:30.452Z,66.06
2022-09-12T22:39:00.301Z,65.69
2022-09-12T22:41:28.628Z,65.86
2022-09-12T22:43:59.979Z,65.81
2022-09-12T22:46:30.202Z,65.72
2022-09-12T22:48:58.610Z,65.99
2022-09-12T22:51:27.535Z,66.20
2022-09-12T22:53:56.607Z,66.12
2022-09-12T22:56:24.965Z,66.51
2022-09-12T22:58:53.436Z,66.34
2022-09-12T23:01:23.932Z,66.45
2022-09-12T23:03:52.404Z,66.76
2022-09-12T23:06:21.183Z,66.85
2022-09-12T23:08:49.507Z,66.79
2022-09-12T23:11:20.963Z,66.99
2022-09-12T23:13:50.986Z,66.89
2022-09-12T23:16:20.621Z,67.08
2022-09-12T23:18:50.606Z,66.57
2022-09-12T23:21:20.427Z,66.76
2022-09-12T23:23:49.160Z,66.45
2022-09-12T23:26:19.375Z,66.36
2022-09-12T23:28:50.825Z,66.09
2022-09-12T23:31:19.266Z,66.21
2022-09-12T23:33:50.144Z,66.12
2022-09-12T23:36:18.456Z,66.36
2022-09-12T23:38:48.244Z,66.09
2022-09-12T23:41:18.440Z,65.93
2022-09-12T23:43:47.200Z,66.04
2022-09-12T23:46:16.708Z,65.85
2022-09-12T23:48:45.416Z,65.95
2022-09-12T23:51:15.247Z,66.24
2022-09-12T23:53:43.606Z,65.91
2022-09-12T23:56:12.401Z,66.22
2022-09-12T23:58:40.675Z,66.23
